createdAt,value
2023-03-19T00:00:45.558Z,98598.56
2023-03-19T00:05:55.234Z,98602.59
2023-03-19T00:11:00.536Z,98606.63
2023-03-19T00:16:08.886Z,98609.09
2023-03-19T00:21:16.644Z,98616.19
2023-03-19T00:26:22.941Z,98612.16
2023-03-19T00:31:33.249Z,98609.09
2023-03-19T00:36:40.669Z,98600.25
2023-03-19T00:41:50.557Z,98604.84
2023-03-19T00:46:59.371Z,98589.31
2023-03-19T00:52:06.557Z,98593.34
2023-03-19T00:57:17.023Z,98591.78
2023-03-19T01:02:25.084Z,98607.13
2023-03-19T01:07:30.026Z,98597.06
2023-03-19T01:12:40.450Z,98604.56
2023-03-19T01:17:48.576Z,98614.84
2023-03-19T01:22:54.282Z,98602.25
2023-03-19T01:27:59.299Z,98604.47
2023-03-19T01:33:14.740Z,98595.19
2023-03-19T01:38:40.583Z,98588.91
2023-03-19T01:43:51.371Z,98585.66
2023-03-19T01:49:16.725Z,98596.59
2023-03-19T01:54:31.347Z,98582.88
2023-03-19T01:59:51.926Z,98580.09
2023-03-19T02:05:26.052Z,98584.16
2023-03-19T02:10:36.332Z,98594.34
2023-03-19T02:15:42.190Z,98606.25
2023-03-19T02:20:56.843Z,98608.69
2023-03-19T02:26:12.246Z,98593.41
2023-03-19T02:31:20.832Z,98584.97
2023-03-19T02:36:31.634Z,98596.03
2023-03-19T02:41:44.654Z,98590.50
2023-03-19T02:46:53.160Z,98598.69
2023-03-19T02:52:00.243Z,98599.50
2023-03-19T02:57:08.644Z,98593.31
2023-03-19T03:02:14.244Z,98593.31
2023-03-19T03:07:20.126Z,98594.78
2023-03-19T03:12:27.910Z,98591.13
2023-03-19T03:17:32.966Z,98589.56
2023-03-19T03:22:38.209Z,98590.28
2023-03-19T03:27:45.910Z,98599.78
2023-03-19T03:32:52.066Z,98602.78
2023-03-19T03:37:58.139Z,98600.63
2023-03-19T03:43:06.927Z,98607.72
2023-03-19T03:48:13.851Z,98610.94
2023-03-19T03:53:20.133Z,98620.69
2023-03-19T03:58:28.284Z,98627.06
2023-03-19T04:03:33.369Z,98623.94
2023-03-19T04:08:38.585Z,98621.13
2023-03-19T04:13:47.693Z,98624.53
2023-03-19T04:18:55.423Z,98624.38
2023-03-19T04:24:00.844Z,98611.91
2023-03-19T04:29:12.101Z,98615.03
2023-03-19T04:34:18.379Z,98632.00
2023-03-19T04:39:23.443Z,98606.16
2023-03-19T04:44:32.746Z,98611.78
2023-03-19T04:49:39.951Z,98613.03
2023-03-19T04:54:45.004Z,98610.16
2023-03-19T04:59:55.742Z,98614.69
2023-03-19T05:05:01.895Z,98609.38
2023-03-19T05:10:09.273Z,98614.50
2023-03-19T05:15:18.181Z,98617.34
2023-03-19T05:20:32.593Z,98615.63
2023-03-19T05:25:44.127Z,98614.84
2023-03-19T05:30:57.336Z,98620.13
2023-03-19T05:36:09.374Z,98628.88
2023-03-19T05:41:32.263Z,98625.66
2023-03-19T05:46:46.752Z,98632.69
2023-03-19T05:51:52.827Z,98627.47
2023-03-19T05:56:58.216Z,98638.38
2023-03-19T06:02:36.440Z,98634.97
2023-03-19T06:07:57.075Z,98647.34
2023-03-19T06:13:34.683Z,98642.72
2023-03-19T06:18:48.185Z,98651.25
2023-03-19T06:23:56.692Z,98653.81
2023-03-19T06:29:08.317Z,98643.72
2023-03-19T06:34:16.744Z,98651.88
2023-03-19T06:39:23.844Z,98648.34
2023-03-19T06:44:32.279Z,98633.00
2023-03-19T06:49:42.918Z,98643.63
2023-03-19T06:54:49.250Z,98630.19
2023-03-19T06:59:55.158Z,98645.41
2023-03-19T07:05:02.738Z,98651.19
2023-03-19T07:10:08.903Z,98643.31
2023-03-19T07:15:17.699Z,98656.28
2023-03-19T07:20:25.406Z,98664.44
2023-03-19T07:25:32.493Z,98665.72
2023-03-19T07:30:41.160Z,98681.47
2023-03-19T07:35:51.521Z,98675.53
2023-03-19T07:41:02.287Z,98672.97
2023-03-19T07:46:08.187Z,98674.22
2023-03-19T07:51:19.154Z,98673.78
2023-03-19T07:56:24.497Z,98666.59
2023-03-19T08:01:29.995Z,98667.75
2023-03-19T08:06:40.199Z,98671.53
2023-03-19T08:11:45.611Z,98659.59
2023-03-19T08:16:50.889Z,98658.25
2023-03-19T08:22:00.159Z,98673.25
2023-03-19T08:27:05.391Z,98672.06
2023-03-19T08:32:13.395Z,98665.09
2023-03-19T08:37:23.269Z,98667.44
2023-03-19T08:42:29.080Z,98669.94
2023-03-19T08:47:34.410Z,98666.06
2023-03-19T08:52:42.162Z,98671.19
2023-03-19T08:57:47.215Z,98677.97
2023-03-19T09:02:52.469Z,98675.97
2023-03-19T09:08:02.488Z,98681.88
2023-03-19T09:13:09.586Z,98669.53
2023-03-19T09:18:15.786Z,98674.75
2023-03-19T09:23:25.404Z,98684.34
2023-03-19T09:28:31.249Z,98681.69
2023-03-19T09:33:36.743Z,98679.34
2023-03-19T09:38:46.665Z,98677.88
2023-03-19T09:44:05.068Z,98670.72
2023-03-19T09:49:19.675Z,98683.50
2023-03-19T09:54:37.141Z,98673.31
2023-03-19T09:59:42.776Z,98669.53
2023-03-19T10:05:00.824Z,98664.22
2023-03-19T10:10:22.147Z,98668.75
2023-03-19T10:15:35.224Z,98663.34
2023-03-19T10:20:48.879Z,98666.63
2023-03-19T10:26:00.019Z,98656.19
2023-03-19T10:31:26.008Z,98661.63
2023-03-19T10:36:39.122Z,98667.56
2023-03-19T10:42:02.506Z,98668.78
2023-03-19T10:47:20.119Z,98661.03
2023-03-19T10:52:32.556Z,98654.16
2023-03-19T10:57:47.183Z,98651.81
2023-03-19T11:02:54.433Z,98661.38
2023-03-19T11:08:01.992Z,98658.50
2023-03-19T11:13:34.035Z,98654.69
2023-03-19T11:18:42.558Z,98650.47
2023-03-19T11:23:54.601Z,98648.97
2023-03-19T11:29:08.258Z,98644.72
2023-03-19T11:34:30.627Z,98641.88
2023-03-19T11:39:46.046Z,98641.88
2023-03-19T11:45:07.268Z,98633.44
2023-03-19T11:50:29.750Z,98628.59
2023-03-19T11:55:42.653Z,98628.38
2023-03-19T12:00:55.168Z,98636.63
2023-03-19T12:06:06.274Z,98631.41
2023-03-19T12:11:28.025Z,98629.59
2023-03-19T12:16:48.314Z,98619.09
2023-03-19T12:22:03.419Z,98621.63
2023-03-19T12:27:22.964Z,98614.13
2023-03-19T12:32:56.064Z,98613.63
2023-03-19T12:38:08.816Z,98616.09
2023-03-19T12:43:21.094Z,98611.59
2023-03-19T12:48:33.235Z,98616.78
2023-03-19T12:53:46.565Z,98615.06
2023-03-19T12:59:03.511Z,98620.94
2023-03-19T13:04:18.094Z,98619.72
2023-03-19T13:09:31.618Z,98628.78
2023-03-19T13:14:48.505Z,98622.09
2023-03-19T13:19:57.302Z,98621.78
2023-03-19T13:25:04.697Z,98622.94
2023-03-19T13:30:20.656Z,98624.03
2023-03-19T13:35:41.759Z,98621.53
2023-03-19T13:40:51.931Z,98628.81
2023-03-19T13:46:10.036Z,98623.94
2023-03-19T13:51:33.135Z,98622.31
2023-03-19T13:57:07.081Z,98611.13
2023-03-19T14:02:41.779Z,98610.50
2023-03-19T14:07:56.417Z,98612.53
2023-03-19T14:13:10.270Z,98615.69
2023-03-19T14:18:24.728Z,98612.03
2023-03-19T14:23:42.740Z,98614.03
2023-03-19T14:28:59.276Z,98615.44
2023-03-19T14:34:24.225Z,98606.06
2023-03-19T14:39:35.503Z,98610.66
2023-03-19T14:45:12.106Z,98611.66
2023-03-19T14:50:34.730Z,98606.84
2023-03-19T14:55:42.396Z,98613.63
2023-03-19T15:00:53.079Z,98622.78
2023-03-19T15:06:01.231Z,98616.97
2023-03-19T15:11:27.561Z,98615.56
2023-03-19T15:16:45.928Z,98618.00
2023-03-19T15:21:52.919Z,98618.00
2023-03-19T15:27:01.038Z,98616.44
2023-03-19T15:32:10.310Z,98612.09
2023-03-19T15:37:20.396Z,98610.19
2023-03-19T15:42:30.698Z,98615.88
2023-03-19T15:47:39.630Z,98614.13
2023-03-19T15:52:48.114Z,98620.56
2023-03-19T15:57:56.715Z,98628.75
2023-03-19T16:03:02.070Z,98635.44
2023-03-19T16:08:18.387Z,98643.16
2023-03-19T16:13:32.668Z,98639.25
2023-03-19T16:18:45.906Z,98643.59
2023-03-19T16:23:57.026Z,98655.81
2023-03-19T16:29:09.691Z,98659.91
2023-03-19T16:34:32.557Z,98665.34
2023-03-19T16:39:39.868Z,98671.09
2023-03-19T16:44:50.055Z,98679.03
2023-03-19T16:49:54.984Z,98681.28
2023-03-19T16:55:04.837Z,98688.66
2023-03-19T17:00:20.719Z,98691.13
2023-03-19T17:05:26.826Z,98696.75
2023-03-19T17:10:36.470Z,98696.22
2023-03-19T17:15:46.482Z,98713.19
2023-03-19T17:20:57.938Z,98703.81
2023-03-19T17:26:07.071Z,98724.97
2023-03-19T17:31:26.869Z,98715.72
2023-03-19T17:36:33.426Z,98719.56
2023-03-19T17:41:39.228Z,98725.28
2023-03-19T17:46:52.342Z,98730.25
2023-03-19T17:51:58.822Z,98731.28
2023-03-19T17:57:04.234Z,98739.94
2023-03-19T18:02:27.300Z,98737.06
2023-03-19T18:07:32.794Z,98734.84
2023-03-19T18:12:37.791Z,98728.88
2023-03-19T18:17:49.114Z,98729.16
2023-03-19T18:22:55.851Z,98730.47
2023-03-19T18:28:01.423Z,98736.94
2023-03-19T18:33:13.818Z,98742.09
2023-03-19T18:38:23.800Z,98744.28
2023-03-19T18:43:29.985Z,98743.06
2023-03-19T18:48:38.318Z,98745.53
2023-03-19T18:53:43.606Z,98742.72
2023-03-19T18:58:50.016Z,98746.56
2023-03-19T19:04:00.217Z,98750.53
2023-03-19T19:09:06.920Z,98757.06
2023-03-19T19:14:22.025Z,98760.25
2023-03-19T19:19:31.505Z,98766.38
2023-03-19T19:24:36.572Z,98767.16
2023-03-19T19:29:41.929Z,98764.28
2023-03-19T19:34:51.971Z,98777.63
2023-03-19T19:39:57.989Z,98768.00
2023-03-19T19:45:05.767Z,98773.69
2023-03-19T19:50:22.378Z,98772.94
2023-03-19T19:55:30.472Z,98787.91
2023-03-19T20:00:36.641Z,98788.69
2023-03-19T20:05:47.973Z,98781.09
2023-03-19T20:10:53.590Z,98785.84
2023-03-19T20:16:01.281Z,98787.38
2023-03-19T20:21:15.166Z,98799.69
2023-03-19T20:26:24.393Z,98797.91
2023-03-19T20:31:33.172Z,98789.13
2023-03-19T20:36:41.860Z,98792.72
2023-03-19T20:41:49.916Z,98798.28
2023-03-19T20:46:59.164Z,98785.88
2023-03-19T20:52:09.544Z,98795.00
2023-03-19T20:57:16.848Z,98796.75
2023-03-19T21:02:25.458Z,98794.69
2023-03-19T21:07:38.680Z,98798.13
2023-03-19T21:12:45.152Z,98791.97
2023-03-19T21:17:50.750Z,98791.50
2023-03-19T21:23:05.250Z,98799.69
2023-03-19T21:28:18.797Z,98795.03
2023-03-19T21:33:27.174Z,98785.28
2023-03-19T21:38:35.733Z,98783.59
2023-03-19T21:43:45.666Z,98783.09
2023-03-19T21:48:50.625Z,98776.91
2023-03-19T21:53:58.768Z,98784.63
2023-03-19T21:59:06.740Z,98793.81
2023-03-19T22:04:14.146Z,98793.25
2023-03-19T22:09:21.917Z,98792.84
2023-03-19T22:14:29.096Z,98786.53
2023-03-19T22:19:34.091Z,98788.03
2023-03-19T22:24:44.428Z,98784.72
2023-03-19T22:29:49.865Z,98786.22
2023-03-19T22:34:55.168Z,98790.28
2023-03-19T22:40:04.269Z,98801.16
2023-03-19T22:45:17.129Z,98806.28
2023-03-19T22:50:25.862Z,98798.06
2023-03-19T22:55:35.894Z,98793.34
2023-03-19T23:00:42.053Z,98792.56
2023-03-19T23:05:50.994Z,98797.47
2023-03-19T23:10:59.606Z,98799.56
2023-03-19T23:16:10.384Z,98798.72
2023-03-19T23:21:18.535Z,98795.88
2023-03-19T23:26:32.036Z,98808.28
2023-03-19T23:31:38.720Z,98791.16
2023-03-19T23:36:44.738Z,98797.00
2023-03-19T23:41:55.233Z,98795.50
2023-03-19T23:47:03.837Z,98790.81
2023-03-19T23:52:09.032Z,98792.81
2023-03-19T23:57:21.126Z,98793.00
